Time;durP1;ratioP1;P1;durP2;ratioP2;P2;SDS_P1;SDS_P2;PMS_P1;PMS_P2;Temp;Humidity;BMP_temperature;BMP_pressure;BME280_temperature;BME280_humidity;BME280_pressure;Samples;Min_cycle;Max_cycle;Signal;HPM_P1;HPM_P2
2022/09/26 00:02:25;;;;;;;16.13;11.60;;;12.50;99.90;;;;;;5054229;28;20207;-71
2022/09/26 00:04:52;;;;;;;16.87;12.23;;;12.50;99.90;;;;;;5073622;28;20247;-71
2022/09/26 00:07:19;;;;;;;20.10;12.03;;;12.50;99.90;;;;;;5074708;28;20295;-71
2022/09/26 00:09:47;;;;;;;19.50;12.53;;;12.60;99.90;;;;;;5073952;28;20288;-71
2022/09/26 00:12:14;;;;;;;18.97;12.37;;;12.60;99.90;;;;;;5073841;28;20204;-70
2022/09/26 00:14:41;;;;;;;17.67;12.03;;;12.60;99.90;;;;;;5074236;28;20232;-73
2022/09/26 00:17:08;;;;;;;18.97;12.20;;;12.60;99.90;;;;;;5074154;28;20295;-71
2022/09/26 00:19:36;;;;;;;15.40;11.67;;;12.60;99.90;;;;;;5073432;28;20655;-72
2022/09/26 00:22:03;;;;;;;16.33;10.50;;;12.60;99.90;;;;;;5074318;28;20647;-72
2022/09/26 00:24:30;;;;;;;18.07;11.50;;;12.60;99.90;;;;;;5073819;28;20651;-71
2022/09/26 00:26:57;;;;;;;15.93;10.80;;;12.60;99.90;;;;;;5074059;28;20677;-71
2022/09/26 00:29:24;;;;;;;16.47;11.87;;;12.70;99.90;;;;;;5073854;28;20291;-71
2022/09/26 00:31:51;;;;;;;16.20;11.90;;;12.60;99.90;;;;;;5061336;28;20301;-71
2022/09/26 00:34:19;;;;;;;15.70;11.67;;;12.70;99.90;;;;;;5052231;28;20248;-71
2022/09/26 00:36:48;;;;;;;16.53;11.40;;;12.70;99.90;;;;;;5047307;28;20221;-70
2022/09/26 00:39:15;;;;;;;18.47;11.87;;;12.70;99.90;;;;;;5052001;28;20197;-69
2022/09/26 00:41:43;;;;;;;17.23;11.60;;;12.60;99.90;;;;;;5052049;28;20229;-72
2022/09/26 00:44:38;;;;;;;18.90;12.43;;;12.70;99.90;;;;;;5053691;28;20197;-70
2022/09/26 00:47:10;;;;;;;17.53;12.10;;;12.70;99.90;;;;;;5053344;28;20197;-72
2022/09/26 00:49:40;;;;;;;19.40;12.10;;;12.60;99.90;;;;;;5053653;28;20607;-70
2022/09/26 00:52:13;;;;;;;16.57;12.13;;;12.70;99.90;;;;;;5053513;28;20216;-70
2022/09/26 00:54:44;;;;;;;16.10;11.70;;;12.70;99.90;;;;;;5053412;28;20222;-70
2022/09/26 00:57:17;;;;;;;20.57;11.73;;;12.70;99.90;;;;;;5053229;28;20194;-70
2022/09/26 00:59:49;;;;;;;18.23;12.30;;;12.70;99.90;;;;;;5052982;28;20284;-70
2022/09/26 01:02:16;;;;;;;18.87;12.63;;;12.60;99.90;;;;;;5053535;28;20560;-71
2022/09/26 01:04:45;;;;;;;18.47;12.30;;;12.60;99.90;;;;;;5052747;28;20585;-71
2022/09/26 01:07:19;;;;;;;16.57;11.30;;;12.60;99.90;;;;;;5052457;28;20198;-70
2022/09/26 01:09:47;;;;;;;16.50;11.13;;;12.60;99.90;;;;;;5052259;28;20234;-69
2022/09/26 01:12:16;;;;;;;16.73;11.37;;;12.60;99.90;;;;;;5053594;28;20212;-69
2022/09/26 01:14:44;;;;;;;17.70;11.50;;;12.60;99.90;;;;;;5052537;28;20446;-71
2022/09/26 01:17:13;;;;;;;17.93;11.40;;;12.60;99.90;;;;;;5052818;28;20251;-71
2022/09/26 01:19:49;;;;;;;14.60;11.13;;;12.60;99.90;;;;;;5052746;28;20818;-71
2022/09/26 01:22:39;;;;;;;15.70;11.10;;;12.60;99.90;;;;;;5052530;28;20269;-70
2022/09/26 01:25:16;;;;;;;15.47;11.37;;;12.60;99.90;;;;;;5052863;28;20251;-70
2022/09/26 01:28:12;;;;;;;17.07;10.87;;;12.60;99.90;;;;;;5053107;28;20626;-71
2022/09/26 01:30:48;;;;;;;14.10;10.17;;;12.60;99.90;;;;;;5047389;28;20288;-71
2022/09/26 01:33:38;;;;;;;14.67;10.00;;;12.60;99.90;;;;;;5049442;28;20698;-71
2022/09/26 01:36:23;;;;;;;13.83;10.00;;;12.60;99.90;;;;;;5051805;28;20202;-70
2022/09/26 01:39:08;;;;;;;13.87;9.80;;;12.60;99.90;;;;;;5052115;28;20698;-70
2022/09/26 01:41:49;;;;;;;13.27;9.50;;;12.60;99.90;;;;;;5050496;28;20284;-71
2022/09/26 01:44:29;;;;;;;16.33;9.37;;;12.60;99.90;;;;;;5052759;28;20189;-69
2022/09/26 01:47:01;;;;;;;12.63;9.10;;;12.50;99.90;;;;;;5052254;28;20224;-70
2022/09/26 01:49:33;;;;;;;11.07;9.03;;;12.60;99.90;;;;;;5050821;28;20237;-71
2022/09/26 01:52:06;;;;;;;14.50;9.80;;;12.60;99.90;;;;;;5052471;28;20602;-70
2022/09/26 01:54:37;;;;;;;12.17;8.97;;;12.60;99.90;;;;;;5051274;28;20205;-69
2022/09/26 01:57:07;;;;;;;11.57;9.20;;;12.60;99.90;;;;;;5052238;28;20284;-71
2022/09/26 01:59:40;;;;;;;11.67;8.67;;;12.50;99.90;;;;;;5051153;28;20213;-70
2022/09/26 02:02:14;;;;;;;13.00;9.50;;;12.60;99.90;;;;;;5052807;28;20189;-69
2022/09/26 02:04:45;;;;;;;12.10;8.93;;;12.60;99.90;;;;;;5049881;28;20746;-68
2022/09/26 02:07:15;;;;;;;11.87;8.70;;;12.60;99.90;;;;;;5052141;28;20277;-68
2022/09/26 02:09:45;;;;;;;13.10;9.13;;;12.50;99.90;;;;;;5052226;28;20565;-70
2022/09/26 02:12:19;;;;;;;12.73;8.80;;;12.60;99.90;;;;;;5051781;28;20280;-69
2022/09/26 02:14:50;;;;;;;12.27;9.13;;;12.60;99.90;;;;;;5050105;28;20295;-68
2022/09/26 02:17:21;;;;;;;12.53;8.57;;;12.60;99.90;;;;;;5052218;28;20616;-69
2022/09/26 02:19:56;;;;;;;12.20;9.13;;;12.60;99.90;;;;;;5051834;28;20762;-71
2022/09/26 02:22:24;;;;;;;12.77;8.33;;;12.50;99.90;;;;;;5051455;28;20189;-71
2022/09/26 02:24:51;;;;;;;15.57;9.03;;;12.50;99.90;;;;;;5050912;28;20708;-70
2022/09/26 02:27:17;;;;;;;13.53;8.87;;;12.50;99.90;;;;;;5052026;28;20205;-70
2022/09/26 02:29:45;;;;;;;13.73;9.47;;;12.50;99.90;;;;;;5051805;28;20307;-69
2022/09/26 02:32:15;;;;;;;11.80;8.97;;;12.50;99.90;;;;;;5051578;28;20201;-71
2022/09/26 02:34:46;;;;;;;14.33;8.90;;;12.50;99.90;;;;;;5050253;28;20243;-68
2022/09/26 02:37:15;;;;;;;11.97;9.10;;;12.50;99.90;;;;;;5051845;28;20598;-70
2022/09/26 02:39:43;;;;;;;13.93;8.90;;;12.50;99.90;;;;;;5051644;28;20292;-69
2022/09/26 02:42:18;;;;;;;13.87;8.80;;;12.50;99.90;;;;;;5050642;28;20296;-70
2022/09/26 02:45:11;;;;;;;11.77;8.83;;;12.50;99.90;;;;;;5051471;28;20380;-71
2022/09/26 02:48:08;;;;;;;11.97;8.60;;;12.50;99.90;;;;;;5044247;28;20208;-69
2022/09/26 02:51:01;;;;;;;14.40;8.13;;;12.50;99.90;;;;;;5051387;28;20396;-69
2022/09/26 02:53:49;;;;;;;11.30;8.53;;;12.50;99.90;;;;;;5050305;28;20682;-69
2022/09/26 02:56:26;;;;;;;10.90;8.83;;;12.50;99.90;;;;;;5051892;28;20285;-69
2022/09/26 02:59:02;;;;;;;13.93;9.00;;;12.50;99.90;;;;;;5051766;28;20284;-70
2022/09/26 03:01:33;;;;;;;11.43;8.80;;;12.50;99.90;;;;;;5051507;28;20541;-69
2022/09/26 03:04:05;;;;;;;16.20;9.23;;;12.50;99.90;;;;;;5050987;28;20778;-70
2022/09/26 03:06:39;;;;;;;14.43;9.77;;;12.50;99.90;;;;;;5055091;28;20189;-69
2022/09/26 03:09:08;;;;;;;13.70;9.90;;;12.50;99.90;;;;;;5055454;28;20263;-70
2022/09/26 03:11:36;;;;;;;13.00;10.27;;;12.50;99.90;;;;;;5054794;28;20300;-70
2022/09/26 03:14:04;;;;;;;13.40;10.23;;;12.40;99.90;;;;;;5054231;28;20221;-69
2022/09/26 03:16:35;;;;;;;13.50;10.20;;;12.40;99.90;;;;;;5055341;28;20205;-68
2022/09/26 03:19:09;;;;;;;12.53;10.30;;;12.40;99.90;;;;;;5055030;28;20320;-70
2022/09/26 03:21:37;;;;;;;13.10;10.23;;;12.30;99.90;;;;;;5055409;28;20363;-69
2022/09/26 03:24:04;;;;;;;12.33;9.60;;;12.30;99.90;;;;;;5054523;28;20204;-69
2022/09/26 03:26:32;;;;;;;13.90;10.30;;;12.30;99.90;;;;;;5054889;28;20655;-69
2022/09/26 03:28:59;;;;;;;12.53;10.40;;;12.30;99.90;;;;;;5054711;28;20252;-69
2022/09/26 03:31:27;;;;;;;14.23;10.00;;;12.30;99.90;;;;;;5054745;28;20213;-70
2022/09/26 03:33:54;;;;;;;12.67;9.80;;;12.30;99.90;;;;;;5053704;28;20241;-69
2022/09/26 03:36:22;;;;;;;12.20;9.37;;;12.30;99.90;;;;;;5053268;28;20208;-70
2022/09/26 03:38:50;;;;;;;21.70;15.87;;;12.30;99.90;;;;;;5054787;28;20243;-70
2022/09/26 03:41:18;;;;;;;16.00;11.27;;;12.30;99.90;;;;;;5054589;28;20735;-69
2022/09/26 03:43:45;;;;;;;14.67;11.07;;;12.30;99.90;;;;;;5054084;28;20571;-69
2022/09/26 03:46:12;;;;;;;13.67;9.87;;;12.30;99.90;;;;;;5054718;28;20730;-70
2022/09/26 03:48:39;;;;;;;11.73;9.03;;;12.30;99.90;;;;;;5054552;28;20241;-69
2022/09/26 03:51:08;;;;;;;12.83;9.17;;;12.30;99.90;;;;;;5054315;28;20205;-69
2022/09/26 03:53:36;;;;;;;11.97;8.57;;;12.30;99.90;;;;;;5053668;28;20205;-69
2022/09/26 03:56:07;;;;;;;11.53;8.77;;;12.30;99.90;;;;;;5052908;28;20711;-69
2022/09/26 03:58:34;;;;;;;12.27;9.30;;;12.30;99.90;;;;;;5053702;28;20715;-69
2022/09/26 04:01:05;;;;;;;14.50;9.90;;;12.30;99.90;;;;;;5053463;28;20213;-69
2022/09/26 04:03:36;;;;;;;15.17;10.17;;;12.30;99.90;;;;;;5054634;28;20666;-70
2022/09/26 04:06:04;;;;;;;16.30;10.90;;;12.30;99.90;;;;;;5054247;28;20292;-70
2022/09/26 04:08:31;;;;;;;17.00;11.60;;;12.30;99.90;;;;;;5054753;28;20608;-70
2022/09/26 04:11:02;;;;;;;18.40;11.50;;;12.30;99.90;;;;;;5053623;28;20594;-70
2022/09/26 04:13:30;;;;;;;19.20;12.13;;;12.20;99.90;;;;;;5054521;28;20205;-68
2022/09/26 04:15:58;;;;;;;18.63;11.53;;;12.20;99.90;;;;;;5053485;28;20694;-69
2022/09/26 04:18:25;;;;;;;16.73;11.13;;;12.20;99.90;;;;;;5053468;28;20205;-70
2022/09/26 04:20:58;;;;;;;15.17;10.70;;;12.20;99.90;;;;;;5053423;28;20569;-69
2022/09/26 04:23:26;;;;;;;17.90;12.10;;;12.20;99.90;;;;;;5053553;28;20193;-70
2022/09/26 04:25:53;;;;;;;17.73;11.93;;;12.20;99.90;;;;;;5053770;28;20295;-69
2022/09/26 04:28:20;;;;;;;18.30;11.87;;;12.10;99.90;;;;;;5053704;28;20235;-69
2022/09/26 04:30:48;;;;;;;14.63;11.00;;;12.10;99.90;;;;;;5051773;28;20285;-68
2022/09/26 04:33:15;;;;;;;17.63;12.57;;;12.00;99.90;;;;;;5053649;28;20289;-71
2022/09/26 04:35:42;;;;;;;15.13;11.93;;;12.00;99.90;;;;;;5053895;28;20660;-69
2022/09/26 04:38:09;;;;;;;15.77;11.60;;;12.00;99.90;;;;;;5053328;28;20211;-68
2022/09/26 04:40:37;;;;;;;15.80;11.30;;;12.00;99.90;;;;;;5052111;28;20296;-69
2022/09/26 04:43:03;;;;;;;14.77;11.40;;;12.00;99.90;;;;;;5053610;28;20211;-69
2022/09/26 04:45:30;;;;;;;17.17;10.80;;;11.90;99.90;;;;;;5053959;28;20305;-70
2022/09/26 04:47:58;;;;;;;14.07;10.37;;;11.90;99.90;;;;;;5053682;28;20679;-69
2022/09/26 04:50:26;;;;;;;13.43;10.20;;;11.80;99.90;;;;;;5052539;28;20218;-69
2022/09/26 04:52:53;;;;;;;14.57;10.20;;;11.80;99.90;;;;;;5053750;28;20209;-70
2022/09/26 04:55:20;;;;;;;13.13;9.67;;;11.70;99.90;;;;;;5053298;28;20229;-70
2022/09/26 04:57:49;;;;;;;13.90;9.67;;;11.70;99.90;;;;;;5053413;28;20629;-71
2022/09/26 05:00:17;;;;;;;15.83;10.60;;;11.70;99.90;;;;;;5052131;28;20301;-69
2022/09/26 05:02:45;;;;;;;13.10;9.30;;;11.70;99.90;;;;;;5053128;28;20296;-68
2022/09/26 05:05:14;;;;;;;12.93;9.93;;;11.80;99.90;;;;;;5052785;28;20614;-69
2022/09/26 05:07:41;;;;;;;14.77;10.10;;;11.70;99.90;;;;;;5052427;28;20305;-68
2022/09/26 05:10:10;;;;;;;13.23;9.23;;;11.80;99.90;;;;;;5052806;28;20724;-70
2022/09/26 05:12:38;;;;;;;13.63;10.43;;;11.80;99.90;;;;;;5052752;28;20212;-70
2022/09/26 05:15:08;;;;;;;12.97;9.90;;;11.90;99.90;;;;;;5052699;28;20225;-70
2022/09/26 05:17:35;;;;;;;14.90;10.47;;;11.90;99.90;;;;;;5052224;28;20206;-69
2022/09/26 05:20:04;;;;;;;13.93;9.97;;;11.90;99.90;;;;;;5052729;28;20208;-69
2022/09/26 05:22:33;;;;;;;14.90;10.53;;;11.90;99.90;;;;;;5053226;28;20743;-71
2022/09/26 05:27:44;;;;;;;13.73;10.80;;;11.90;99.90;;;;;;5052902;28;20285;-69
2022/09/26 05:30:12;;;;;;;16.40;12.27;;;11.90;99.90;;;;;;5051512;28;20237;-69
2022/09/26 05:32:39;;;;;;;18.57;12.00;;;11.90;99.90;;;;;;5052282;28;20270;-70
2022/09/26 05:35:07;;;;;;;15.13;11.50;;;11.90;99.90;;;;;;5050479;28;20233;-70
2022/09/26 05:37:35;;;;;;;17.77;12.67;;;11.90;99.90;;;;;;5052454;28;20214;-69
2022/09/26 05:42:46;;;;;;;17.03;12.50;;;11.90;99.90;;;;;;5052369;28;20559;-70
2022/09/26 05:45:14;;;;;;;15.30;11.37;;;11.90;99.90;;;;;;5050759;28;20329;-70
2022/09/26 05:47:41;;;;;;;13.40;11.00;;;11.90;99.90;;;;;;5048549;28;20201;-69
2022/09/26 05:50:09;;;;;;;13.90;10.80;;;11.90;99.90;;;;;;5050813;28;20204;-69
2022/09/26 05:52:38;;;;;;;14.63;11.10;;;11.90;99.90;;;;;;5051520;28;20267;-68
2022/09/26 05:55:06;;;;;;;15.27;10.93;;;11.90;99.90;;;;;;5051486;28;20229;-69
2022/09/26 05:57:33;;;;;;;16.83;11.23;;;11.90;99.90;;;;;;5052283;28;20207;-69
2022/09/26 06:00:01;;;;;;;13.67;10.67;;;12.00;99.90;;;;;;5050992;28;20286;-68
2022/09/26 06:02:28;;;;;;;18.87;11.77;;;12.00;99.90;;;;;;5051884;28;20201;-71
2022/09/26 06:04:55;;;;;;;16.70;10.97;;;12.00;99.90;;;;;;5051270;28;20208;-69
2022/09/26 06:07:22;;;;;;;16.27;11.20;;;12.10;99.90;;;;;;5051496;28;20225;-70
2022/09/26 06:09:51;;;;;;;16.77;11.17;;;12.10;99.90;;;;;;5050402;28;20223;-69
2022/09/26 06:12:18;;;;;;;14.83;10.53;;;12.10;99.90;;;;;;5052144;28;20300;-70
2022/09/26 06:14:45;;;;;;;15.87;11.40;;;12.20;99.90;;;;;;5052109;28;20747;-70
2022/09/26 06:17:12;;;;;;;19.23;10.90;;;12.20;99.90;;;;;;5050999;28;20236;-69
2022/09/26 06:19:39;;;;;;;14.20;11.00;;;12.20;99.90;;;;;;5051299;28;20816;-69
2022/09/26 06:22:06;;;;;;;17.47;11.70;;;12.20;99.90;;;;;;5051868;28;21017;-69
2022/09/26 06:24:33;;;;;;;17.87;11.80;;;12.30;99.90;;;;;;5051747;28;20206;-69
2022/09/26 06:27:01;;;;;;;17.83;11.57;;;12.20;99.90;;;;;;5051097;28;20292;-70
2022/09/26 06:29:28;;;;;;;19.93;11.53;;;12.20;99.90;;;;;;5052149;28;20296;-68
2022/09/26 06:31:55;;;;;;;17.90;11.53;;;12.30;99.90;;;;;;5051804;28;20213;-69
2022/09/26 06:34:22;;;;;;;14.50;10.40;;;12.30;99.90;;;;;;5051582;28;20610;-68
2022/09/26 06:36:49;;;;;;;17.07;10.17;;;12.30;99.90;;;;;;5051312;28;20316;-69
2022/09/26 06:39:16;;;;;;;13.97;9.83;;;12.30;99.90;;;;;;5050190;28;20292;-70
2022/09/26 06:41:44;;;;;;;13.50;9.43;;;12.30;99.90;;;;;;5051991;28;20212;-69
2022/09/26 06:44:12;;;;;;;11.80;9.73;;;12.30;99.90;;;;;;5050405;28;20565;-69
2022/09/26 06:46:39;;;;;;;12.30;9.57;;;12.40;99.90;;;;;;5051742;28;20205;-69
2022/09/26 06:49:06;;;;;;;12.63;9.63;;;12.40;99.90;;;;;;5051480;28;20209;-70
2022/09/26 06:51:33;;;;;;;14.70;9.60;;;12.40;99.90;;;;;;5051741;28;20213;-68
2022/09/26 06:54:00;;;;;;;13.53;9.57;;;12.40;99.90;;;;;;5051181;28;20216;-70
2022/09/26 06:56:27;;;;;;;15.70;9.57;;;12.40;99.90;;;;;;5051071;28;20263;-70
2022/09/26 06:58:54;;;;;;;13.50;9.30;;;12.50;99.90;;;;;;5051574;28;20675;-69
2022/09/26 07:01:22;;;;;;;16.47;10.87;;;12.50;99.90;;;;;;5051708;28;20205;-70
2022/09/26 07:03:49;;;;;;;16.10;10.30;;;12.50;99.90;;;;;;5051064;28;20237;-69
2022/09/26 07:06:16;;;;;;;15.90;9.80;;;12.50;99.90;;;;;;5049918;28;20291;-70
2022/09/26 07:08:43;;;;;;;16.20;10.83;;;12.50;99.90;;;;;;5051892;28;20627;-70
2022/09/26 07:11:10;;;;;;;15.77;10.63;;;12.60;99.90;;;;;;5048152;28;20225;-69
2022/09/26 07:13:38;;;;;;;17.20;10.90;;;12.60;99.90;;;;;;5048917;28;20203;-68
2022/09/26 07:16:05;;;;;;;18.77;12.07;;;12.60;99.90;;;;;;5050735;28;20308;-66
2022/09/26 07:18:33;;;;;;;21.03;12.23;;;12.70;99.90;;;;;;5049365;28;20205;-68
2022/09/26 07:21:04;;;;;;;16.20;10.93;;;12.70;99.90;;;;;;5050860;28;20292;-69
2022/09/26 07:23:31;;;;;;;20.27;13.73;;;12.70;99.90;;;;;;5050200;28;20292;-66
2022/09/26 07:25:58;;;;;;;28.37;17.53;;;12.70;99.90;;;;;;5050730;28;20209;-69
2022/09/26 07:28:26;;;;;;;17.80;11.70;;;12.70;99.90;;;;;;5050950;28;20198;-67
2022/09/26 07:30:56;;;;;;;15.20;11.60;;;12.80;99.90;;;;;;5051045;28;20817;-68
2022/09/26 07:33:23;;;;;;;17.67;12.23;;;12.80;99.90;;;;;;5050943;28;20241;-69
2022/09/26 07:35:51;;;;;;;17.50;12.63;;;12.80;99.90;;;;;;5050207;28;20247;-66
2022/09/26 07:38:18;;;;;;;16.80;11.23;;;12.90;99.90;;;;;;5050933;28;20209;-71
2022/09/26 07:40:45;;;;;;;17.50;12.33;;;12.90;99.90;;;;;;5050831;28;20312;-67
2022/09/26 07:43:12;;;;;;;16.13;13.07;;;12.90;99.90;;;;;;5051141;28;20236;-68
2022/09/26 07:51:10;;;;;;;18.43;13.83;;;13.20;99.90;;;;;;5048792;28;20571;-69
2022/09/26 07:53:40;;;;;;;16.87;13.23;;;13.20;99.90;;;;;;5034298;28;20206;-67
2022/09/26 07:56:09;;;;;;;20.43;13.07;;;13.30;99.90;;;;;;5034537;28;20316;-69
2022/09/26 07:58:37;;;;;;;17.43;12.30;;;13.30;99.90;;;;;;5034637;28;20660;-69
2022/09/26 08:01:05;;;;;;;16.60;10.93;;;13.40;99.90;;;;;;5037427;28;20826;-69
2022/09/26 08:03:32;;;;;;;15.27;11.60;;;13.40;99.90;;;;;;5054067;28;20373;-68
2022/09/26 08:06:00;;;;;;;15.53;11.50;;;13.50;99.90;;;;;;5053620;28;20293;-69
2022/09/26 08:08:29;;;;;;;13.67;10.23;;;13.50;99.90;;;;;;5054500;28;20213;-67
2022/09/26 08:10:57;;;;;;;13.30;10.30;;;13.60;99.90;;;;;;5053552;28;20296;-69
2022/09/26 08:13:24;;;;;;;14.57;9.77;;;13.60;99.90;;;;;;5054337;28;20217;-67
2022/09/26 08:15:51;;;;;;;14.23;9.60;;;13.70;99.90;;;;;;5053876;28;20232;-69
2022/09/26 08:18:18;;;;;;;16.83;10.30;;;13.80;99.90;;;;;;5054307;28;20211;-68
2022/09/26 08:20:47;;;;;;;14.07;9.37;;;13.90;99.90;;;;;;5052567;28;20288;-68
2022/09/26 08:23:14;;;;;;;12.43;9.47;;;14.00;99.90;;;;;;5054063;28;20678;-69
2022/09/26 08:25:42;;;;;;;13.87;9.23;;;14.10;99.90;;;;;;5054007;28;20724;-71
2022/09/26 08:28:11;;;;;;;17.77;9.57;;;14.20;99.90;;;;;;5054107;28;20271;-69
2022/09/26 08:30:38;;;;;;;13.83;9.13;;;14.20;99.90;;;;;;5053996;28;20612;-67
2022/09/26 08:33:07;;;;;;;13.63;9.20;;;14.40;99.90;;;;;;5053027;28;20596;-69
2022/09/26 08:35:37;;;;;;;14.97;9.30;;;14.50;99.90;;;;;;5053848;28;20225;-67
2022/09/26 08:38:06;;;;;;;12.80;9.20;;;14.60;99.90;;;;;;5054125;28;20277;-68
2022/09/26 08:40:43;;;;;;;13.33;9.13;;;14.70;99.90;;;;;;5052505;28;20562;-68
2022/09/26 08:43:19;;;;;;;10.87;8.33;;;14.80;99.90;;;;;;5053363;28;20248;-68
2022/09/26 08:48:52;;;;;;;10.47;7.80;;;15.00;99.90;;;;;;5053381;28;20658;-68
2022/09/26 08:51:27;;;;;;;12.07;7.90;;;15.10;99.90;;;;;;5051972;28;20198;-68
2022/09/26 08:53:57;;;;;;;9.87;7.40;;;15.20;99.90;;;;;;5053349;28;20274;-69
2022/09/26 08:56:30;;;;;;;11.10;7.47;;;15.30;99.90;;;;;;5053018;28;20321;-68
2022/09/26 08:59:01;;;;;;;9.63;6.60;;;15.40;99.90;;;;;;5053527;28;20198;-67
2022/09/26 09:01:30;;;;;;;9.77;7.00;;;15.40;99.90;;;;;;5051943;28;20293;-70
2022/09/26 09:04:03;;;;;;;9.50;7.00;;;15.50;99.90;;;;;;5052252;28;20209;-70
2022/09/26 09:06:30;;;;;;;8.97;6.70;;;15.60;99.90;;;;;;5052729;28;20202;-68
2022/09/26 09:08:57;;;;;;;10.20;7.03;;;15.70;99.90;;;;;;5052662;28;20237;-69
2022/09/26 09:11:47;;;;;;;10.23;7.30;;;15.80;99.90;;;;;;5050992;28;20290;-71
2022/09/26 09:14:27;;;;;;;9.67;6.90;;;15.90;99.90;;;;;;5052237;28;20221;-70
2022/09/26 09:17:07;;;;;;;8.10;6.80;;;15.90;99.90;;;;;;5049865;28;20299;-70
2022/09/26 09:19:45;;;;;;;9.23;6.80;;;16.00;99.90;;;;;;5052234;28;20290;-69
2022/09/26 09:22:37;;;;;;;11.43;7.20;;;16.10;99.90;;;;;;5052224;28;20201;-70
2022/09/26 09:25:14;;;;;;;10.67;7.00;;;16.20;99.90;;;;;;5052465;28;20275;-69
2022/09/26 09:27:52;;;;;;;8.70;6.90;;;16.30;99.90;;;;;;5052106;28;20721;-69
2022/09/26 09:30:23;;;;;;;10.27;6.70;;;16.30;99.90;;;;;;5052929;28;20304;-70
2022/09/26 09:32:54;;;;;;;10.67;8.13;;;16.40;99.90;;;;;;5052601;28;20189;-69
2022/09/26 09:35:29;;;;;;;11.83;7.57;;;16.50;99.90;;;;;;5052685;28;20276;-69
2022/09/26 09:37:57;;;;;;;9.87;6.93;;;16.50;99.90;;;;;;5053145;28;20622;-71
2022/09/26 09:40:27;;;;;;;9.50;7.07;;;16.50;99.90;;;;;;5052432;28;20227;-70
2022/09/26 09:42:59;;;;;;;9.37;7.60;;;16.60;99.90;;;;;;5032979;28;20196;-69
2022/09/26 09:45:31;;;;;;;9.93;7.03;;;16.70;99.90;;;;;;5042005;28;20280;-69
2022/09/26 09:47:58;;;;;;;11.67;8.07;;;16.70;99.90;;;;;;5052681;28;20286;-70
2022/09/26 09:50:38;;;;;;;22.60;10.90;;;16.80;99.90;;;;;;5052523;28;20335;-73
2022/09/26 09:53:18;;;;;;;16.90;9.20;;;16.90;99.90;;;;;;5052269;28;20288;-71
2022/09/26 09:55:58;;;;;;;12.23;7.27;;;17.00;99.90;;;;;;5052135;28;20234;-72
2022/09/26 09:58:44;;;;;;;9.43;6.70;;;17.10;99.90;;;;;;5051278;28;20239;-69
2022/09/26 10:01:19;;;;;;;8.63;6.20;;;17.20;99.90;;;;;;5048815;28;20706;-71
2022/09/26 10:03:54;;;;;;;9.20;5.90;;;17.30;99.90;;;;;;5052813;28;20253;-70
2022/09/26 10:06:22;;;;;;;7.23;5.43;;;17.40;99.90;;;;;;5052356;28;20223;-71
2022/09/26 10:08:50;;;;;;;9.33;6.27;;;17.50;99.90;;;;;;5052319;28;20210;-71
2022/09/26 10:11:28;;;;;;;8.23;6.10;;;17.60;99.90;;;;;;5050496;28;20204;-70
2022/09/26 10:14:00;;;;;;;8.00;5.33;;;17.70;99.90;;;;;;5048801;28;20655;-70
2022/09/26 10:16:32;;;;;;;10.77;5.93;;;17.80;99.90;;;;;;5050083;28;20221;-69
2022/09/26 10:19:05;;;;;;;9.93;6.00;;;17.90;99.90;;;;;;5051038;28;20504;-70
2022/09/26 10:21:34;;;;;;;7.03;5.37;;;18.00;99.90;;;;;;5052340;28;20186;-70
2022/09/26 10:24:03;;;;;;;7.03;5.00;;;18.20;99.90;;;;;;5051621;28;20205;-70
2022/09/26 10:26:34;;;;;;;7.40;4.90;;;18.30;99.90;;;;;;5052000;28;20209;-69
2022/09/26 10:29:07;;;;;;;7.03;5.00;;;18.40;99.90;;;;;;5051940;28;20287;-71
2022/09/26 10:31:39;;;;;;;6.50;4.90;;;18.50;99.90;;;;;;5048623;28;20195;-69
2022/09/26 10:34:20;;;;;;;8.40;5.33;;;18.50;99.90;;;;;;5050995;28;20229;-69
2022/09/26 10:36:47;;;;;;;7.63;5.60;;;18.60;99.90;;;;;;5031616;28;20221;-71
2022/09/26 10:42:13;;;;;;;6.93;5.20;;;18.70;99.90;;;;;;5034331;28;20189;-71
2022/09/26 10:44:41;;;;;;;6.27;4.80;;;18.70;99.90;;;;;;5051610;28;20281;-72
2022/09/26 10:47:15;;;;;;;5.80;4.40;;;18.80;99.90;;;;;;5052163;28;20325;-70
2022/09/26 10:49:50;;;;;;;6.37;5.03;;;18.90;99.90;;;;;;5061751;28;20288;-70
2022/09/26 10:52:22;;;;;;;6.77;5.10;;;18.90;99.90;;;;;;5071564;28;20184;-71
2022/09/26 10:54:56;;;;;;;7.10;4.60;;;18.90;99.90;;;;;;5071777;28;20189;-71
2022/09/26 10:57:28;;;;;;;7.87;4.60;;;19.00;99.90;;;;;;5054292;28;20301;-70
2022/09/26 10:59:58;;;;;;;8.03;4.23;;;19.00;99.90;;;;;;5052044;28;20541;-70
2022/09/26 11:02:28;;;;;;;6.17;4.40;;;19.10;99.90;;;;;;5051300;28;20211;-71
2022/09/26 11:07:47;;;;;;;6.27;4.67;;;19.10;99.90;;;;;;5070294;28;20199;-70
2022/09/26 11:10:22;;;;;;;5.67;4.20;;;19.20;99.90;;;;;;5071403;28;20326;-71
2022/09/26 11:12:58;;;;;;;5.73;4.30;;;19.20;99.90;;;;;;5053744;28;20207;-69
2022/09/26 11:15:27;;;;;;;7.23;4.70;;;19.20;99.90;;;;;;5051349;28;20570;-71
2022/09/26 11:17:56;;;;;;;5.43;4.20;;;19.20;99.90;;;;;;5051605;28;20287;-70
2022/09/26 11:20:40;;;;;;;8.30;4.87;;;19.20;99.90;;;;;;5050867;28;20215;-69
2022/09/26 11:23:16;;;;;;;9.10;5.03;;;19.20;99.90;;;;;;5057163;28;20230;-71
2022/09/26 11:25:57;;;;;;;6.30;4.63;;;19.20;99.90;;;;;;5072006;28;20190;-70
2022/09/26 11:28:30;;;;;;;7.80;4.80;;;19.20;99.90;;;;;;5075156;28;20275;-70
2022/09/26 11:31:04;;;;;;;5.83;4.50;;;19.30;99.90;;;;;;5065536;28;20629;-72
2022/09/26 11:33:34;;;;;;;6.73;4.50;;;19.30;99.90;;;;;;5054439;28;20231;-72
2022/09/26 11:36:18;;;;;;;6.87;4.40;;;19.30;99.90;;;;;;5055246;28;20295;-71
2022/09/26 11:38:47;;;;;;;5.53;4.23;;;19.30;99.90;;;;;;5054425;28;20280;-69
2022/09/26 11:41:46;;;;;;;7.60;5.63;;;19.30;99.90;;;;;;5050978;28;20205;-72
2022/09/26 11:44:30;;;;;;;5.40;3.93;;;19.40;99.90;;;;;;5043046;28;20207;-69
2022/09/26 11:47:10;;;;;;;5.57;3.83;;;19.40;99.90;;;;;;5054634;28;20434;-71
2022/09/26 11:50:01;;;;;;;7.30;3.80;;;19.30;99.90;;;;;;5055077;28;20622;-72
2022/09/26 11:52:40;;;;;;;5.57;4.00;;;19.30;99.90;;;;;;5055193;28;20282;-74
2022/09/26 11:55:18;;;;;;;7.60;4.23;;;19.30;99.90;;;;;;5035076;28;20262;-72
2022/09/26 11:57:53;;;;;;;8.33;4.37;;;19.30;99.90;;;;;;5046082;28;20303;-72
2022/09/26 12:00:26;;;;;;;8.07;4.50;;;19.30;99.90;;;;;;5054765;28;20558;-73
2022/09/26 12:03:32;;;;;;;7.33;4.80;;;19.30;99.90;;;;;;5054457;28;20235;-70
2022/09/26 12:06:07;;;;;;;5.90;4.53;;;19.20;99.90;;;;;;5024429;28;20201;-70
2022/09/26 12:08:56;;;;;;;7.97;4.87;;;19.20;99.90;;;;;;5054447;28;20208;-69
2022/09/26 12:11:35;;;;;;;6.67;4.70;;;19.10;99.90;;;;;;5053863;28;20196;-70
2022/09/26 12:14:12;;;;;;;7.93;5.67;;;19.10;99.90;;;;;;5053223;28;20222;-70
2022/09/26 12:16:47;;;;;;;7.57;4.83;;;19.00;99.90;;;;;;5053843;28;20570;-71
2022/09/26 12:19:26;;;;;;;8.70;5.70;;;19.10;99.90;;;;;;5054232;28;20616;-69
2022/09/26 12:24:56;;;;;;;8.03;4.87;;;19.10;99.90;;;;;;5054082;28;20204;-72
2022/09/26 12:27:28;;;;;;;8.10;5.10;;;19.20;99.90;;;;;;5054209;28;20280;-73
2022/09/26 12:30:03;;;;;;;6.63;4.40;;;19.20;99.90;;;;;;5053729;28;20270;-71
2022/09/26 12:32:55;;;;;;;5.93;4.23;;;19.20;99.90;;;;;;5062186;28;20613;-71
2022/09/26 12:35:44;;;;;;;7.83;4.40;;;19.20;99.90;;;;;;5054331;28;20189;-71
2022/09/26 12:38:33;;;;;;;8.37;4.63;;;19.10;99.90;;;;;;5033462;28;20708;-71
2022/09/26 12:41:13;;;;;;;6.33;4.50;;;19.10;99.90;;;;;;5034195;28;20653;-71
2022/09/26 12:44:01;;;;;;;8.63;4.20;;;19.10;99.90;;;;;;5034282;28;20711;-72
2022/09/26 12:46:44;;;;;;;9.50;4.20;;;19.20;99.90;;;;;;5034309;28;20279;-70
2022/09/26 12:49:32;;;;;;;5.60;4.40;;;19.20;99.90;;;;;;5049495;28;20211;-71
2022/09/26 12:52:08;;;;;;;6.90;4.60;;;19.20;99.90;;;;;;5054652;28;20621;-70
2022/09/26 12:54:52;;;;;;;10.07;4.50;;;19.10;99.90;;;;;;5054260;28;20290;-71
2022/09/26 12:57:31;;;;;;;7.47;4.53;;;19.10;99.90;;;;;;5053516;28;20209;-72
2022/09/26 13:00:17;;;;;;;8.30;5.43;;;19.10;99.90;;;;;;5053898;28;20186;-70
2022/09/26 13:03:08;;;;;;;6.40;4.77;;;19.10;99.90;;;;;;5041850;28;20199;-72
2022/09/26 13:06:09;;;;;;;6.57;4.30;;;19.10;99.90;;;;;;5034285;28;20793;-71
2022/09/26 13:08:43;;;;;;;6.13;4.37;;;19.10;99.90;;;;;;4984064;28;20665;-69
2022/09/26 13:11:21;;;;;;;7.73;4.57;;;19.10;99.90;;;;;;5032215;28;20209;-70
2022/09/26 13:14:11;;;;;;;7.67;4.50;;;19.10;99.90;;;;;;5034497;28;20637;-72
2022/09/26 13:16:54;;;;;;;7.97;4.77;;;19.10;99.90;;;;;;5035317;28;20236;-69
2022/09/26 13:19:28;;;;;;;8.03;4.30;;;19.00;99.90;;;;;;5040624;28;20292;-71
2022/09/26 13:22:00;;;;;;;6.60;4.87;;;19.00;99.90;;;;;;5052473;28;20239;-71
2022/09/26 13:24:34;;;;;;;9.87;6.40;;;19.00;99.90;;;;;;5052913;28;20378;-70